This is the latest recevied weather packets stored in our database for station/object N7BTW-13. If no packets are shown the sender has not sent any weather packets the latest 10 day(s).
| Time | Temp. | Humidity | Pressure | Rain* | Wind** | Luminosity | Snow |
|---|---|---|---|---|---|---|---|
| 1788039608 | 22.78° C | 47% | - | 0 mm | - | - | - |
| 1788039007 | 23.33° C | 44% | - | 0 mm | - | - | - |
| 1788038407 | 24.44° C | 44% | - | 0 mm | - | - | - |
| 1788037807 | 25.56° C | 42% | - | 0 mm | - | - | - |
| 1788037211 | 25° C | 44% | - | 0 mm | - | - | - |
| 1788036606 | 22.78° C | 50% | - | 0 mm | - | - | - |
| 1788036007 | 22.22° C | 53% | - | 0 mm | - | - | - |
| 1788035409 | 23.89° C | 50% | - | 0 mm | - | - | - |
| 1788034806 | 24.44° C | 49% | - | 0 mm | - | - | - |
| 1788034209 | 23.33° C | 50% | - | 0 mm | - | - | - |
| 1788033606 | 22.78° C | 53% | - | 0 mm | - | - | - |
| 1788033009 | 22.22° C | 56% | - | 0 mm | - | - | - |
| 1788032406 | 21.67° C | 58% | - | 0 mm | - | - | - |
| 1788031811 | 21.11° C | 60% | - | 0 mm | - | - | - |
| 1788031207 | 20.56° C | 64% | - | 0 mm | - | - | - |
| 1788030606 | 20° C | 65% | - | 0 mm | - | - | - |
| 1788030007 | 20° C | 64% | - | 0 mm | - | - | - |
| 1788029407 | 20.56° C | 60% | - | 0 mm | - | - | - |
| 1788028808 | 20° C | 62% | - | 0 mm | - | - | - |
| 1788028208 | 20.56° C | 60% | - | 0 mm | - | - | - |
| 1788027608 | 21.67° C | 60% | - | 0 mm | - | - | - |
| 1788027007 | 20° C | 64% | - | 0 mm | - | - | - |
| 1788026406 | 20° C | 65% | - | 0 mm | - | - | - |
| 1788025809 | 19.44° C | 64% | - | 0 mm | - | - | - |
| 1788025210 | 20° C | 63% | - | 0 mm | - | - | - |
* Rain latest hour (hover to see other rain measurements)
** Current wind speed in m/s (hover to see current wind gust speed)